Time;durP1;ratioP1;P1;durP2;ratioP2;P2;SDS_P1;SDS_P2;PMS_P1;PMS_P2;Temp;Humidity;BMP_temperature;BMP_pressure;BME280_temperature;BME280_humidity;BME280_pressure;Samples;Min_cycle;Max_cycle;Signal;HPM_P1;HPM_P2
2022/04/03 00:01:56;;;;;;;8.00;4.40;;;;;;;0.58;55.04;99740.75;106003;1276;24392;-82
2022/04/03 00:04:24;;;;;;;9.60;4.90;;;;;;;0.59;54.97;99742.48;105745;1276;23616;-76
2022/04/03 00:06:51;;;;;;;7.20;4.40;;;;;;;0.55;55.01;99740.67;106337;1270;22541;-77
2022/04/03 00:09:18;;;;;;;5.80;3.50;;;;;;;0.55;55.10;99741.03;106162;1270;25236;-78
2022/04/03 00:11:45;;;;;;;9.70;4.20;;;;;;;0.51;54.76;99742.15;106141;1270;24262;-78
2022/04/03 00:14:12;;;;;;;8.10;4.50;;;;;;;0.44;55.02;99743.23;106399;1270;22524;-80
2022/04/03 00:16:40;;;;;;;8.00;4.10;;;;;;;0.46;55.06;99742.58;106216;1270;25399;-80
2022/04/03 00:19:08;;;;;;;5.60;3.70;;;;;;;0.48;55.24;99741.05;106409;1270;24369;-80
2022/04/03 00:21:36;;;;;;;5.20;3.70;;;;;;;0.47;54.97;99739.82;105953;1277;23088;-82
2022/04/03 00:24:03;;;;;;;9.50;4.80;;;;;;;0.41;54.86;99739.69;105753;1277;22543;-80
2022/04/03 00:26:30;;;;;;;9.80;4.20;;;;;;;0.37;55.09;99739.78;105820;1277;22538;-79
2022/04/03 00:28:58;;;;;;;8.80;4.70;;;;;;;0.33;55.19;99738.67;105753;1277;23182;-80
2022/04/03 00:31:25;;;;;;;6.90;4.20;;;;;;;0.26;55.10;99736.43;105997;1277;22544;-80
2022/04/03 00:33:52;;;;;;;7.10;4.30;;;;;;;0.16;55.37;99739.66;106011;1275;24917;-79
2022/04/03 00:36:20;;;;;;;6.20;3.90;;;;;;;0.17;55.46;99740.02;106003;1275;22598;-78
2022/04/03 00:38:47;;;;;;;7.40;4.00;;;;;;;0.19;55.65;99737.83;106003;1275;25552;-78
2022/04/03 00:41:14;;;;;;;8.20;4.60;;;;;;;0.21;55.57;99739.27;106313;1270;26682;-76
2022/04/03 00:43:44;;;;;;;5.80;3.50;;;;;;;0.18;55.50;99737.98;106393;1270;25401;-79
2022/04/03 00:46:15;;;;;;;7.30;4.50;;;;;;;0.08;55.50;99736.73;106437;1270;22561;-82
2022/04/03 00:48:43;;;;;;;7.60;3.90;;;;;;;0.01;55.59;99735.17;106306;1271;22531;-83
2022/04/03 00:51:11;;;;;;;6.00;4.20;;;;;;;-0.05;55.67;99745.77;106291;1271;23961;-82
2022/04/03 00:53:38;;;;;;;6.20;4.20;;;;;;;-0.03;55.87;99744.09;105967;1276;25311;-82
2022/04/03 00:56:07;;;;;;;8.10;4.00;;;;;;;-0.04;55.72;99749.27;106121;1274;22847;-80
2022/04/03 00:58:37;;;;;;;5.10;3.50;;;;;;;-0.07;55.78;99744.51;105851;1275;22682;-79
2022/04/03 01:01:05;;;;;;;6.10;4.20;;;;;;;-0.15;55.97;99746.58;105813;1276;25239;-79
2022/04/03 01:03:32;;;;;;;7.30;4.00;;;;;;;-0.14;56.11;99746.43;105961;1275;25514;-83
2022/04/03 01:05:59;;;;;;;6.20;4.50;;;;;;;-0.18;55.98;99745.65;105790;1275;22855;-76
2022/04/03 01:08:27;;;;;;;6.50;3.70;;;;;;;-0.19;55.92;99743.88;106030;1275;25402;-79
2022/04/03 01:10:55;;;;;;;7.00;4.00;;;;;;;-0.21;56.10;99743.48;105212;1279;22776;-78
2022/04/03 01:13:22;;;;;;;8.50;4.00;;;;;;;-0.22;56.01;99744.16;105778;1275;22519;-78
2022/04/03 01:15:51;;;;;;;5.50;3.90;;;;;;;-0.22;56.05;99750.40;105771;1275;25330;-78
2022/04/03 01:18:19;;;;;;;6.20;4.20;;;;;;;-0.19;55.88;99748.05;105901;1278;22522;-80
2022/04/03 01:20:47;;;;;;;7.20;4.10;;;;;;;-0.21;55.90;99746.77;105727;1275;22769;-80
2022/04/03 01:23:13;;;;;;;6.80;3.90;;;;;;;-0.26;55.85;99749.07;105683;1275;25412;-83
2022/04/03 01:25:41;;;;;;;6.50;3.90;;;;;;;-0.27;55.82;99750.45;105763;1276;25342;-80
2022/04/03 01:28:08;;;;;;;5.90;4.30;;;;;;;-0.28;55.69;99749.37;105698;1275;22580;-82
2022/04/03 01:30:36;;;;;;;6.20;3.60;;;;;;;-0.33;55.62;99746.85;106135;1270;22588;-80
2022/04/03 01:33:03;;;;;;;5.60;3.90;;;;;;;-0.41;55.78;99747.51;106038;1271;22624;-80
2022/04/03 01:35:30;;;;;;;7.20;4.30;;;;;;;-0.41;56.02;99745.77;106252;1270;23917;-81
2022/04/03 01:37:57;;;;;;;9.70;4.70;;;;;;;-0.37;55.98;99749.15;105636;1278;25232;-81
2022/04/03 01:40:24;;;;;;;4.80;3.80;;;;;;;-0.31;56.21;99752.08;105679;1279;25694;-82
2022/04/03 01:42:51;;;;;;;8.10;3.80;;;;;;;-0.33;55.78;99756.70;105749;1277;25354;-79
2022/04/03 01:45:20;;;;;;;6.70;4.70;;;;;;;-0.31;55.88;99758.14;105819;1278;24230;-76
2022/04/03 01:47:47;;;;;;;6.70;4.00;;;;;;;-0.23;55.50;99760.39;105747;1278;25319;-78
2022/04/03 01:50:14;;;;;;;8.50;4.30;;;;;;;-0.24;55.43;99759.52;105330;1281;22557;-78
2022/04/03 01:52:41;;;;;;;5.20;3.70;;;;;;;-0.28;55.45;99762.19;105261;1284;22562;-78
2022/04/03 01:55:08;;;;;;;5.30;4.30;;;;;;;-0.30;55.37;99764.56;105535;1281;25355;-77
2022/04/03 01:57:37;;;;;;;8.00;4.30;;;;;;;-0.33;55.50;99765.52;106070;1274;25201;-78
2022/04/03 02:00:06;;;;;;;5.60;3.70;;;;;;;-0.27;55.72;99768.60;106022;1273;22527;-79
2022/04/03 02:02:34;;;;;;;6.20;3.90;;;;;;;-0.26;55.27;99768.12;106203;1273;25282;-78
2022/04/03 02:05:02;;;;;;;6.50;4.40;;;;;;;-0.33;54.98;99778.66;105712;1279;24309;-78
2022/04/03 02:07:30;;;;;;;5.60;3.60;;;;;;;-0.40;54.99;99781.27;105585;1281;25252;-77
2022/04/03 02:09:57;;;;;;;5.20;3.70;;;;;;;-0.43;54.93;99783.79;105498;1281;22534;-79
2022/04/03 02:12:24;;;;;;;6.90;4.00;;;;;;;-0.56;54.79;99782.41;105524;1281;22535;-82
2022/04/03 02:14:52;;;;;;;7.10;4.00;;;;;;;-0.72;54.76;99783.20;105245;1281;22559;-84
2022/04/03 02:17:19;;;;;;;6.40;3.90;;;;;;;-0.75;55.01;99787.80;105510;1281;24298;-81
2022/04/03 02:19:45;;;;;;;7.60;4.80;;;;;;;-0.74;54.95;99789.71;105887;1280;25651;-77
2022/04/03 02:22:20;;;;;;;7.20;4.10;;;;;;;-0.71;55.16;99788.40;105397;1282;23976;-79
2022/04/03 02:24:47;;;;;;;7.90;4.60;;;;;;;-0.68;54.83;99791.60;105672;1279;24236;-78
2022/04/03 02:27:14;;;;;;;6.00;4.00;;;;;;;-0.64;54.82;99794.11;106087;1274;25573;-81
2022/04/03 02:29:41;;;;;;;7.20;4.40;;;;;;;-0.63;54.68;99792.61;105935;1276;22547;-84
2022/04/03 02:32:08;;;;;;;7.10;4.70;;;;;;;-0.60;54.63;99789.23;106195;1276;22477;-78
2022/04/03 02:34:35;;;;;;;7.00;4.50;;;;;;;-0.61;54.33;99791.10;106532;1274;22525;-78
2022/04/03 02:37:01;;;;;;;6.10;3.40;;;;;;;-0.63;54.27;99792.61;106051;1276;22772;-78
2022/04/03 02:39:29;;;;;;;7.30;4.00;;;;;;;-0.68;54.09;99792.31;106151;1274;22583;-76
2022/04/03 02:41:56;;;;;;;6.30;3.80;;;;;;;-0.70;54.26;99794.65;106506;1271;22554;-79
2022/04/03 02:44:23;;;;;;;6.40;3.70;;;;;;;-0.71;54.01;99796.89;106503;1271;22569;-77
2022/04/03 02:46:49;;;;;;;6.70;3.90;;;;;;;-0.74;53.92;99796.45;106299;1271;22531;-80
2022/04/03 02:49:18;;;;;;;5.30;3.80;;;;;;;-0.82;53.74;99796.42;106366;1271;23164;-82
2022/04/03 02:51:45;;;;;;;5.90;4.20;;;;;;;-0.89;53.94;99800.21;106385;1271;22545;-77
2022/04/03 02:54:12;;;;;;;6.90;4.50;;;;;;;-0.95;53.71;99801.42;106264;1272;25717;-76
2022/04/03 02:56:39;;;;;;;6.50;4.30;;;;;;;-1.03;53.64;99801.55;106450;1271;25299;-76
2022/04/03 02:59:06;;;;;;;6.40;4.10;;;;;;;-1.06;53.89;99802.15;106282;1271;25348;-77
2022/04/03 03:01:33;;;;;;;5.20;4.10;;;;;;;-1.06;53.81;99799.75;106557;1269;23059;-78
2022/04/03 03:04:00;;;;;;;5.80;4.10;;;;;;;-0.98;53.96;99800.15;106474;1271;22569;-76
2022/04/03 03:06:27;;;;;;;7.60;4.60;;;;;;;-0.92;54.00;99799.61;106209;1268;23938;-76
2022/04/03 03:08:53;;;;;;;7.70;4.50;;;;;;;-0.82;53.88;99800.92;106435;1271;24484;-80
2022/04/03 03:11:20;;;;;;;6.80;4.00;;;;;;;-0.77;53.69;99797.78;106296;1271;24219;-80
2022/04/03 03:13:47;;;;;;;8.50;4.30;;;;;;;-0.80;53.42;99802.70;106164;1274;25507;-79
2022/04/03 03:16:14;;;;;;;7.20;4.20;;;;;;;-0.79;53.56;99804.30;106059;1276;22534;-78
2022/04/03 03:18:42;;;;;;;5.50;4.20;;;;;;;-0.75;53.31;99807.00;106162;1274;22662;-78
2022/04/03 03:21:09;;;;;;;5.00;3.60;;;;;;;-0.74;53.33;99811.33;106030;1276;22921;-82
2022/04/03 03:23:36;;;;;;;3.90;3.40;;;;;;;-0.78;53.06;99812.12;106057;1277;25381;-77
2022/04/03 03:26:03;;;;;;;7.90;4.50;;;;;;;-0.87;53.09;99813.76;105994;1274;23148;-77
2022/04/03 03:28:30;;;;;;;6.10;3.50;;;;;;;-0.88;53.02;99811.48;106157;1275;22859;-77
2022/04/03 03:30:57;;;;;;;6.20;4.00;;;;;;;-0.91;52.87;99814.50;105952;1281;22792;-74
2022/04/03 03:33:24;;;;;;;7.00;3.90;;;;;;;-0.94;53.02;99813.20;106132;1274;22592;-79
2022/04/03 03:35:52;;;;;;;5.90;3.60;;;;;;;-0.91;53.13;99813.48;106107;1277;22566;-75
2022/04/03 03:38:19;;;;;;;6.90;4.20;;;;;;;-0.92;53.06;99817.23;106078;1275;22549;-80
2022/04/03 03:40:47;;;;;;;5.70;3.60;;;;;;;-0.99;53.04;99814.79;106242;1275;22528;-76
2022/04/03 03:43:14;;;;;;;6.40;4.00;;;;;;;-1.04;53.03;99824.18;106240;1274;22526;-75
2022/04/03 03:45:41;;;;;;;4.60;3.70;;;;;;;-1.12;53.05;99817.36;106169;1274;24307;-78
2022/04/03 03:48:10;;;;;;;5.00;3.50;;;;;;;-1.08;53.20;99830.09;106180;1274;24710;-79
2022/04/03 03:50:37;;;;;;;7.70;3.80;;;;;;;-1.06;53.19;99827.04;106626;1268;24171;-74
2022/04/03 03:53:04;;;;;;;5.70;4.00;;;;;;;-1.11;53.08;99830.88;106256;1268;22578;-79
2022/04/03 03:55:32;;;;;;;6.00;3.40;;;;;;;-1.16;53.00;99834.54;106395;1272;22527;-78
2022/04/03 03:57:59;;;;;;;6.70;4.10;;;;;;;-1.19;53.22;99834.44;106155;1268;25283;-79
2022/04/03 04:00:26;;;;;;;6.70;3.80;;;;;;;-1.17;53.40;99839.51;106366;1268;22690;-80
2022/04/03 04:02:53;;;;;;;7.80;4.60;;;;;;;-1.17;53.11;99844.54;106312;1271;24219;-83
2022/04/03 04:05:20;;;;;;;5.90;4.00;;;;;;;-1.23;53.02;99841.25;106411;1268;22858;-79
2022/04/03 04:07:47;;;;;;;5.80;4.40;;;;;;;-1.22;53.17;99851.80;106149;1273;22537;-77
2022/04/03 04:10:16;;;;;;;5.00;4.00;;;;;;;-1.21;52.99;99849.76;106315;1268;25274;-78
2022/04/03 04:12:45;;;;;;;6.00;3.90;;;;;;;-1.27;52.89;99856.50;106477;1268;26494;-76
2022/04/03 04:15:13;;;;;;;7.60;4.20;;;;;;;-1.29;53.05;99858.16;106443;1268;22863;-77
2022/04/03 04:17:44;;;;;;;6.10;3.90;;;;;;;-1.27;53.16;99861.85;106359;1268;25442;-77
2022/04/03 04:20:15;;;;;;;5.50;4.20;;;;;;;-1.28;52.94;99863.73;106230;1269;23036;-76
2022/04/03 04:22:44;;;;;;;6.40;3.80;;;;;;;-1.29;53.10;99866.79;106245;1271;25301;-76
2022/04/03 04:25:16;;;;;;;6.60;4.50;;;;;;;-1.30;53.05;99869.73;106340;1268;25359;-77
2022/04/03 04:27:44;;;;;;;6.80;4.20;;;;;;;-1.28;53.33;99869.44;106451;1268;22592;-73
2022/04/03 04:30:13;;;;;;;7.20;4.50;;;;;;;-1.20;53.21;99868.80;106699;1268;22676;-78
2022/04/03 04:32:40;;;;;;;7.80;4.90;;;;;;;-1.21;52.97;99867.55;106142;1274;22518;-76
2022/04/03 04:35:08;;;;;;;8.10;4.50;;;;;;;-1.19;53.02;99866.41;106181;1276;22589;-77
2022/04/03 04:37:35;;;;;;;7.20;3.90;;;;;;;-1.17;52.78;99875.27;106150;1277;24190;-77
2022/04/03 04:40:03;;;;;;;8.10;4.00;;;;;;;-1.15;52.96;99874.98;105926;1274;24241;-83
2022/04/03 04:42:30;;;;;;;5.60;3.60;;;;;;;-1.16;52.68;99878.62;105768;1274;22541;-77
2022/04/03 04:44:57;;;;;;;7.70;4.20;;;;;;;-1.25;52.34;99878.50;105836;1274;22563;-80
2022/04/03 04:47:25;;;;;;;6.00;4.20;;;;;;;-1.35;52.54;99879.39;105821;1274;25250;-79
2022/04/03 04:49:51;;;;;;;7.00;4.50;;;;;;;-1.43;52.47;99877.07;105996;1274;24323;-83
2022/04/03 04:52:18;;;;;;;6.10;4.50;;;;;;;-1.40;52.76;99884.78;106249;1271;22510;-85
2022/04/03 04:54:45;;;;;;;6.70;4.60;;;;;;;-1.36;52.77;99885.41;106273;1268;25232;-84
2022/04/03 04:57:12;;;;;;;7.50;4.60;;;;;;;-1.35;52.60;99887.17;106206;1268;24394;-83
2022/04/03 04:59:39;;;;;;;7.40;4.50;;;;;;;-1.29;52.74;99889.44;106390;1273;22528;-79
2022/04/03 05:02:06;;;;;;;6.70;4.50;;;;;;;-1.25;52.49;99896.30;106164;1268;22561;-79
2022/04/03 05:04:34;;;;;;;6.40;4.60;;;;;;;-1.25;52.26;99899.59;106205;1274;22558;-81
2022/04/03 05:07:04;;;;;;;8.30;5.30;;;;;;;-1.24;52.34;99904.45;106282;1268;25387;-78
2022/04/03 05:09:32;;;;;;;9.10;5.50;;;;;;;-1.27;52.06;99910.93;106126;1268;22527;-78
2022/04/03 05:12:00;;;;;;;5.00;4.10;;;;;;;-1.28;52.25;99917.98;105924;1270;225778;-78
2022/04/03 05:14:27;;;;;;;6.10;4.40;;;;;;;-1.28;52.27;99924.88;106164;1268;22613;-79
2022/04/03 05:16:54;;;;;;;7.00;4.50;;;;;;;-1.33;51.91;99925.77;106213;1268;24296;-80
2022/04/03 05:19:26;;;;;;;7.00;4.80;;;;;;;-1.38;52.22;99926.31;106163;1271;22580;-78
2022/04/03 05:21:53;;;;;;;6.40;5.00;;;;;;;-1.30;52.46;99928.27;105684;1274;22541;-78
2022/04/03 05:24:20;;;;;;;8.40;5.80;;;;;;;-1.26;51.98;99927.21;105823;1275;24300;-78
2022/04/03 05:26:47;;;;;;;7.60;4.80;;;;;;;-1.28;51.89;99932.49;105816;1275;25520;-78
2022/04/03 05:29:14;;;;;;;6.20;4.70;;;;;;;-1.23;52.06;99934.36;105286;1281;22975;-79
2022/04/03 05:31:42;;;;;;;9.20;5.10;;;;;;;-1.15;51.98;99937.20;105387;1281;22573;-79
2022/04/03 05:34:10;;;;;;;6.00;4.50;;;;;;;-1.12;51.83;99937.98;105714;1281;25351;-79
2022/04/03 05:36:37;;;;;;;6.40;4.60;;;;;;;-1.04;51.57;99938.76;105598;1281;24350;-81
2022/04/03 05:39:05;;;;;;;6.70;4.90;;;;;;;-0.97;51.74;99948.65;105836;1279;25274;-80
2022/04/03 05:41:34;;;;;;;8.20;4.80;;;;;;;-1.02;51.26;99946.78;106064;1274;22555;-84
2022/04/03 05:44:02;;;;;;;5.50;4.30;;;;;;;-1.10;51.49;99950.52;105999;1275;25363;-81
2022/04/03 05:46:29;;;;;;;7.00;4.90;;;;;;;-1.02;51.77;99953.50;105910;1275;22988;-80
2022/04/03 05:48:59;;;;;;;5.30;4.50;;;;;;;-1.01;51.43;99954.78;105996;1275;22587;-80
2022/04/03 05:51:26;;;;;;;8.00;5.20;;;;;;;-0.95;51.56;99956.49;105532;1281;22727;-79
2022/04/03 05:53:53;;;;;;;4.80;3.70;;;;;;;-0.88;51.38;99958.25;105619;1279;22546;-84
2022/04/03 05:56:27;;;;;;;7.50;5.10;;;;;;;-0.86;51.37;99960.75;105833;1281;23740;-91
2022/04/03 05:58:54;;;;;;;5.00;4.40;;;;;;;-0.74;51.24;99962.81;105892;1279;24293;-81
2022/04/03 06:01:21;;;;;;;5.80;4.30;;;;;;;-0.68;51.06;99966.27;105735;1279;25719;-84
2022/04/03 06:03:48;;;;;;;8.90;4.80;;;;;;;-0.68;50.70;99968.17;105698;1281;22753;-80
2022/04/03 06:06:16;;;;;;;7.90;4.60;;;;;;;-0.69;50.80;99971.95;105597;1279;22534;-80
2022/04/03 06:08:44;;;;;;;5.80;4.50;;;;;;;-0.62;50.77;99974.56;105859;1275;22678;-80
2022/04/03 06:11:11;;;;;;;5.90;4.80;;;;;;;-0.61;50.78;99977.54;106201;1271;25460;-80
2022/04/03 06:13:39;;;;;;;6.00;4.90;;;;;;;-0.60;50.75;99978.63;106152;1268;22692;-79
2022/04/03 06:16:06;;;;;;;5.50;3.90;;;;;;;-0.56;50.70;99981.00;106347;1270;22610;-79
2022/04/03 06:18:33;;;;;;;5.70;3.70;;;;;;;-0.52;50.63;99983.52;106164;1268;24253;-80
2022/04/03 06:21:00;;;;;;;4.90;3.50;;;;;;;-0.53;50.41;99979.36;106224;1268;24221;-80
2022/04/03 06:23:27;;;;;;;6.00;4.60;;;;;;;-0.58;50.50;99981.64;106275;1268;25405;-80
2022/04/03 06:25:56;;;;;;;5.00;4.10;;;;;;;-0.54;50.75;99984.67;106387;1268;25342;-80
2022/04/03 06:28:24;;;;;;;7.10;4.50;;;;;;;-0.49;50.93;99984.64;106264;1268;24370;-84
2022/04/03 06:30:56;;;;;;;4.80;4.30;;;;;;;-0.39;50.83;99981.31;106305;1268;22575;-80
2022/04/03 06:33:24;;;;;;;5.90;4.60;;;;;;;-0.31;50.57;99982.91;106301;1268;24272;-78
2022/04/03 06:35:51;;;;;;;9.10;5.10;;;;;;;-0.35;50.12;99988.70;106335;1268;22581;-80
2022/04/03 06:38:18;;;;;;;9.10;4.70;;;;;;;-0.38;50.29;99988.10;106563;1268;22633;-81
2022/04/03 06:40:54;;;;;;;6.40;4.10;;;;;;;-0.39;50.37;99991.17;107576;1267;23078;-81
2022/04/03 06:43:24;;;;;;;7.20;3.90;;;;;;;-0.33;50.45;99997.39;106825;1274;22787;-80
2022/04/03 06:45:52;;;;;;;5.20;3.90;;;;;;;-0.24;50.47;99998.17;106496;1274;22512;-79
2022/04/03 06:48:20;;;;;;;6.10;4.00;;;;;;;-0.15;50.58;99993.92;106291;1281;25380;-78
2022/04/03 06:50:47;;;;;;;5.10;3.80;;;;;;;-0.03;50.26;100001.52;106592;1280;22578;-79
2022/04/03 06:53:14;;;;;;;6.80;4.20;;;;;;;0.01;50.30;100005.27;106384;1281;25337;-78
2022/04/03 06:55:41;;;;;;;8.00;4.00;;;;;;;0.06;50.00;100000.89;106824;1281;22622;-80
2022/04/03 06:58:08;;;;;;;4.90;3.70;;;;;;;0.04;49.74;100002.73;106942;1281;24295;-82
2022/04/03 07:00:40;;;;;;;6.50;3.90;;;;;;;-0.04;49.92;100005.66;106307;1281;24411;-80
2022/04/03 07:03:08;;;;;;;5.00;3.90;;;;;;;-0.03;50.03;100004.81;106682;1274;22512;-81
2022/04/03 07:05:35;;;;;;;7.40;4.60;;;;;;;0.00;49.94;100008.71;106563;1272;25606;-82
2022/04/03 07:08:02;;;;;;;5.00;3.60;;;;;;;0.11;49.96;100011.59;106511;1273;24259;-81
2022/04/03 07:10:29;;;;;;;6.50;4.30;;;;;;;0.17;50.08;100012.43;106750;1274;22539;-81
2022/04/03 07:12:59;;;;;;;4.60;3.60;;;;;;;0.26;49.82;100012.36;106355;1273;24272;-78
2022/04/03 07:15:26;;;;;;;6.50;4.30;;;;;;;0.33;49.61;100015.45;106382;1273;25357;-80
2022/04/03 07:17:53;;;;;;;5.40;4.00;;;;;;;0.38;49.64;100014.56;106277;1275;22533;-81
2022/04/03 07:20:20;;;;;;;4.90;3.80;;;;;;;0.46;49.75;100016.33;106289;1273;25785;-82
2022/04/03 07:22:48;;;;;;;5.20;3.70;;;;;;;0.58;49.57;100018.71;106272;1274;23188;-82
2022/04/03 07:25:22;;;;;;;4.00;3.40;;;;;;;0.67;49.34;100018.77;106268;1273;24403;-83
2022/04/03 07:27:49;;;;;;;4.50;3.40;;;;;;;0.72;49.38;100019.73;106584;1268;23603;-80
2022/04/03 07:30:16;;;;;;;6.60;3.90;;;;;;;0.72;49.21;100015.93;106593;1268;25408;-79
2022/04/03 07:32:43;;;;;;;4.10;3.10;;;;;;;0.80;49.10;100020.27;106426;1268;25232;-81
2022/04/03 07:35:11;;;;;;;4.70;3.50;;;;;;;0.85;48.94;100021.80;106464;1270;25358;-80
2022/04/03 07:37:39;;;;;;;4.40;3.70;;;;;;;0.85;48.59;100018.14;107235;1268;25377;-84
2022/04/03 07:40:07;;;;;;;4.60;3.60;;;;;;;0.85;48.71;100022.85;108077;1268;24238;-78
2022/04/03 07:42:36;;;;;;;5.00;3.10;;;;;;;0.90;48.72;100025.05;107079;1268;22766;-79
2022/04/03 07:45:04;;;;;;;4.80;3.60;;;;;;;1.01;48.76;100027.03;106903;1268;22586;-80
2022/04/03 07:47:34;;;;;;;4.80;3.50;;;;;;;1.11;48.41;100024.49;106518;1270;25361;-80
2022/04/03 07:50:04;;;;;;;3.70;3.00;;;;;;;1.12;48.15;100026.77;106751;1268;22617;-82
2022/04/03 07:52:32;;;;;;;8.80;4.30;;;;;;;1.12;48.29;100030.42;106971;1268;22548;-81
2022/04/03 07:55:00;;;;;;;4.50;3.40;;;;;;;1.19;48.38;100029.20;106741;1268;25583;-81
2022/04/03 07:57:27;;;;;;;4.90;3.10;;;;;;;1.28;48.19;100032.70;106565;1268;25353;-78
2022/04/03 07:59:54;;;;;;;5.30;3.90;;;;;;;1.45;48.65;100032.73;106091;1276;24256;-81
2022/04/03 08:02:21;;;;;;;6.40;3.70;;;;;;;1.63;48.05;100030.33;106297;1277;24233;-79
2022/04/03 08:04:48;;;;;;;5.90;3.40;;;;;;;1.65;47.37;100036.29;106494;1274;22752;-81
2022/04/03 08:07:15;;;;;;;5.10;3.30;;;;;;;1.72;47.66;100042.16;106127;1274;22866;-82
2022/04/03 08:09:42;;;;;;;5.90;3.40;;;;;;;1.77;47.02;100028.89;105893;1281;25940;-82
2022/04/03 08:12:10;;;;;;;4.70;3.70;;;;;;;1.80;46.80;100035.54;105751;1283;23075;-79
2022/04/03 08:14:37;;;;;;;5.60;3.60;;;;;;;1.95;46.94;100039.85;105709;1284;22542;-81
2022/04/03 08:17:04;;;;;;;3.50;2.90;;;;;;;2.14;46.82;100040.41;105364;1284;24319;-81
2022/04/03 08:19:32;;;;;;;4.00;3.10;;;;;;;2.22;46.14;100039.33;105272;1282;22537;-81
2022/04/03 08:22:00;;;;;;;5.30;3.50;;;;;;;2.34;46.64;100041.48;105300;1282;23883;-81
2022/04/03 08:24:27;;;;;;;4.10;3.10;;;;;;;2.56;46.11;100040.31;105107;1284;25417;-81
2022/04/03 08:26:54;;;;;;;4.30;3.00;;;;;;;2.67;45.51;100041.18;104788;1286;22609;-82
2022/04/03 08:29:21;;;;;;;5.20;3.80;;;;;;;2.79;45.18;100044.36;105404;1284;24251;-84
2022/04/03 08:31:48;;;;;;;4.10;3.60;;;;;;;3.03;45.41;100045.45;105719;1279;25528;-83
2022/04/03 08:34:17;;;;;;;5.60;3.20;;;;;;;3.29;44.93;100043.92;105641;1279;22655;-81
2022/04/03 08:37:05;;;;;;;3.80;3.20;;;;;;;3.50;45.11;100042.85;106021;1274;22770;-83
2022/04/03 08:39:32;;;;;;;4.80;3.60;;;;;;;3.73;44.31;100045.92;105936;1275;22917;-81
2022/04/03 08:41:59;;;;;;;3.80;3.00;;;;;;;3.90;43.90;100046.33;106200;1268;22533;-83
2022/04/03 08:44:27;;;;;;;4.40;3.50;;;;;;;4.08;43.42;100045.86;106406;1268;25434;-82
2022/04/03 08:46:59;;;;;;;4.10;2.90;;;;;;;4.27;42.96;100046.08;106495;1268;22575;-86
2022/04/03 08:49:31;;;;;;;4.60;3.30;;;;;;;4.35;41.99;100046.67;106599;1268;24251;-83
2022/04/03 08:52:00;;;;;;;5.60;3.00;;;;;;;4.46;42.14;100045.92;106540;1268;24289;-83
2022/04/03 08:54:30;;;;;;;4.30;3.40;;;;;;;4.55;41.27;100047.77;106398;1268;25228;-82
2022/04/03 08:56:57;;;;;;;3.40;2.70;;;;;;;4.47;40.57;100049.24;106442;1268;22658;-82
2022/04/03 08:59:25;;;;;;;3.70;2.60;;;;;;;4.42;40.71;100050.77;106202;1268;25642;-82
2022/04/03 09:01:52;;;;;;;5.40;3.10;;;;;;;4.50;41.05;100047.02;106444;1268;22531;-84
2022/04/03 09:04:21;;;;;;;4.10;3.00;;;;;;;4.65;40.42;100050.47;106384;1268;23975;-84
2022/04/03 09:06:59;;;;;;;3.40;2.60;;;;;;;4.79;40.69;100044.14;106245;1268;22524;-83
2022/04/03 09:09:27;;;;;;;3.50;2.70;;;;;;;5.01;40.72;100042.92;106233;1268;22538;-81
2022/04/03 09:12:15;;;;;;;7.10;2.70;;;;;;;5.09;40.26;100044.22;106282;1268;22600;-84
2022/04/03 09:14:48;;;;;;;3.60;2.60;;;;;;;5.15;39.00;100046.20;106377;1268;22619;-84
2022/04/03 09:17:34;;;;;;;3.30;2.50;;;;;;;4.99;39.17;100044.13;106554;1271;25358;-87
2022/04/03 09:20:05;;;;;;;4.80;2.70;;;;;;;4.72;39.76;100053.49;106399;1268;23989;-88
2022/04/03 09:22:35;;;;;;;3.70;2.80;;;;;;;4.83;39.25;100051.33;106428;1268;23211;-82
2022/04/03 09:25:09;;;;;;;3.20;2.60;;;;;;;5.05;39.74;100054.13;106730;1268;24312;-89
2022/04/03 09:27:50;;;;;;;3.90;2.30;;;;;;;5.32;39.55;100054.16;106503;1268;24410;-85
2022/04/03 09:30:20;;;;;;;3.10;2.40;;;;;;;5.57;38.77;100052.57;106473;1268;22744;-85
2022/04/03 09:32:54;;;;;;;2.90;2.60;;;;;;;5.63;38.03;100052.78;106453;1269;22527;-81
2022/04/03 09:35:29;;;;;;;3.80;2.30;;;;;;;5.78;38.17;100051.29;106545;1268;22607;-82
2022/04/03 09:38:10;;;;;;;5.90;2.60;;;;;;;6.11;38.25;100046.73;106311;1268;25247;-84
2022/04/03 09:40:41;;;;;;;4.50;2.70;;;;;;;6.62;38.79;100053.34;106315;1270;22605;-83
2022/04/03 09:43:11;;;;;;;4.70;2.80;;;;;;;7.09;38.04;100052.52;106187;1274;22529;-83
2022/04/03 09:45:50;;;;;;;4.40;2.40;;;;;;;7.38;36.95;100049.86;106329;1274;26578;-85
2022/04/03 09:48:29;;;;;;;2.30;2.00;;;;;;;7.43;36.28;100055.98;106375;1274;22509;-81
2022/04/03 09:51:00;;;;;;;2.20;2.00;;;;;;;7.19;35.53;100057.95;106272;1274;22570;-84
2022/04/03 09:53:28;;;;;;;3.40;2.40;;;;;;;7.26;35.90;100060.91;106269;1274;25202;-82
2022/04/03 09:55:55;;;;;;;2.50;2.30;;;;;;;7.36;35.66;100055.11;106519;1274;23732;-81
2022/04/03 09:58:23;;;;;;;3.40;2.40;;;;;;;7.67;35.97;100053.13;106798;1274;24076;-82
2022/04/03 10:00:50;;;;;;;3.30;2.40;;;;;;;8.09;35.41;100050.89;106431;1268;23833;-83
2022/04/03 10:03:19;;;;;;;3.20;2.40;;;;;;;7.94;34.48;100052.69;106741;1268;22528;-78
2022/04/03 10:05:47;;;;;;;4.20;2.50;;;;;;;7.60;34.31;100057.02;106514;1268;26613;-82
2022/04/03 10:08:15;;;;;;;3.30;1.90;;;;;;;7.43;34.83;100055.11;106494;1268;22532;-85
2022/04/03 10:10:42;;;;;;;2.80;2.20;;;;;;;7.35;34.32;100055.81;106278;1268;25255;-82
2022/04/03 10:13:10;;;;;;;3.30;2.30;;;;;;;7.14;34.36;100056.02;106450;1268;25236;-84
2022/04/03 10:15:38;;;;;;;3.80;2.50;;;;;;;7.34;34.29;100062.84;106407;1269;25417;-86
2022/04/03 10:18:05;;;;;;;3.40;2.40;;;;;;;7.32;34.53;100062.13;106418;1268;25251;-84
2022/04/03 10:20:35;;;;;;;4.10;2.80;;;;;;;7.22;34.15;100067.04;106304;1268;24268;-84
2022/04/03 10:23:10;;;;;;;3.70;2.70;;;;;;;6.81;33.98;100070.54;106216;1270;24440;-84
2022/04/03 10:25:44;;;;;;;4.50;2.40;;;;;;;6.81;33.93;100066.68;106266;1269;25966;-84
2022/04/03 10:28:16;;;;;;;3.20;2.30;;;;;;;6.81;33.41;100060.20;106417;1268;24064;-84
2022/04/03 10:30:44;;;;;;;4.00;2.20;;;;;;;6.93;33.24;100065.11;106409;1268;24078;-79
2022/04/03 10:33:23;;;;;;;2.30;1.90;;;;;;;7.07;33.24;100062.49;106466;1268;25358;-79
2022/04/03 10:36:12;;;;;;;2.20;2.00;;;;;;;7.24;32.53;100060.22;106401;1268;25641;-81
2022/04/03 10:38:56;;;;;;;4.60;2.60;;;;;;;6.86;32.38;100052.33;106356;1268;24232;-82
2022/04/03 10:41:28;;;;;;;3.00;2.20;;;;;;;6.72;33.23;100053.02;106526;1268;25245;-82
2022/04/03 10:44:12;;;;;;;3.00;2.20;;;;;;;6.82;33.45;100052.86;106258;1271;24025;-80
2022/04/03 10:47:04;;;;;;;3.30;2.60;;;;;;;6.97;33.49;100052.70;106453;1270;25242;-81
2022/04/03 10:49:38;;;;;;;2.70;2.50;;;;;;;7.47;33.90;100052.48;106597;1268;25301;-83
2022/04/03 10:52:07;;;;;;;4.70;2.70;;;;;;;7.89;33.26;100041.84;106139;1273;24228;-84
2022/04/03 10:54:43;;;;;;;2.10;1.90;;;;;;;8.24;32.92;100042.74;106341;1273;22690;-81
2022/04/03 10:57:33;;;;;;;3.30;2.60;;;;;;;7.97;30.55;100051.45;106330;1273;22573;-82
2022/04/03 11:00:12;;;;;;;2.30;2.10;;;;;;;7.41;31.33;100057.21;106173;1273;22550;-84
2022/04/03 11:02:51;;;;;;;4.20;2.60;;;;;;;7.40;31.38;100048.64;106880;1273;22789;-82
2022/04/03 11:05:21;;;;;;;3.30;2.70;;;;;;;7.51;30.94;100039.84;106699;1273;24279;-83
2022/04/03 11:07:51;;;;;;;4.30;3.00;;;;;;;7.78;30.89;100046.44;106325;1273;22584;-85
2022/04/03 11:10:56;;;;;;;4.50;2.60;;;;;;;7.92;30.79;100042.19;106340;1275;22760;-81
2022/04/03 11:13:32;;;;;;;3.00;2.20;;;;;;;8.30;31.31;100039.20;106735;1275;22873;-81
2022/04/03 11:16:10;;;;;;;4.60;2.90;;;;;;;8.32;29.38;100044.45;107244;1274;22583;-84
2022/04/03 11:18:58;;;;;;;3.60;2.70;;;;;;;8.12;30.00;100040.88;106428;1277;24253;-82
2022/04/03 11:21:47;;;;;;;5.40;2.50;;;;;;;8.16;30.07;100040.16;106116;1277;22975;-87
2022/04/03 11:24:16;;;;;;;3.50;2.80;;;;;;;8.41;30.59;100034.95;105616;1283;25389;-85
2022/04/03 11:26:46;;;;;;;3.80;2.50;;;;;;;8.82;30.47;100036.45;105508;1283;23924;-84
2022/04/03 11:29:14;;;;;;;3.90;2.70;;;;;;;9.20;30.26;100034.19;105632;1279;22542;-87
2022/04/03 11:31:46;;;;;;;4.70;2.70;;;;;;;9.47;30.09;100031.66;105579;1281;22540;-86
2022/04/03 11:34:27;;;;;;;2.80;2.60;;;;;;;9.58;29.25;100027.67;105685;1279;23921;-85
2022/04/03 11:37:07;;;;;;;4.00;2.30;;;;;;;9.36;29.18;100025.62;105791;1276;22891;-85